KPZQ METAR Reports


Rogers City, Presque Isle County Airport, MI, United States (KPZQ) 45-24-25N 083-48-46W
Nov 29, 2022 - 11:15 PM EST / 2022.11.30 0415 UTC
Wind: from the S (170 degrees) at 14 MPH (12 KT) gusting to 20 MPH (17 KT):0
Visibility: 10 mile(s):0
Sky conditions: overcast
Temperature: 46.9 F (8.3 C)
Dew Point: 42.8 F (6.0 C)
Relative Humidity: 85%
Pressure (altimeter): 29.45 in. Hg (997 hPa)
ob: KPZQ 300415Z AUTO 17012G17KT 10SM OVC020 08/06 A2945 RMK AO2 T00830060
cycle: 4

 

Rogers City METAR Meteogram

Weather Chart

Nearby METAR Reports

KPZQ - Rogers City, Michigan, USA
Distance from station: SSW 1mi, 2km
Updated: Tue, 29-Nov-2022 10:55pm EST
Overcast
Overcast
 Wind from SSE
Wind: SSE 18 mph , 30 km/h, Gust: 26 mph , 43 km/h
Temperature: 46°F , 8°C
Wind Chill: 39°F , 4°C
Dew Point: 43°F , 6°C
Humidity: 87%
Barometer: 29.46 inHg , 997.6 hPa
Clouds: Overcast
Visibility: 7 miles , 11 km
Cloud details: Overcast 2000 ft
2022/11/30 03:55 KPZQ 300355Z AUTO 16016G23KT 7SM OVC020 08/06 A2946 RMK AO2 T00830060 400850013
KAPN - Alpena, Michigan, USA
Distance from station: SSE 27mi, 43km
Updated: Tue, 29-Nov-2022 10:54pm EST
Light rain, Overcast
Light rain, Overcast
 Wind from SSE
Wind: SSE 20 mph , 31 km/h, Gust: 31 mph , 50 km/h
Temperature: 46°F , 8°C
Wind Chill: 38°F , 3°C
Dew Point: 43°F , 6°C
Humidity: 87%
Barometer: 29.49 inHg , 998.6 hPa
Summary: Light rain
Clouds: Overcast
Visibility: 10 miles , 16 km
Cloud details: Overcast 1700 ft
2022/11/30 03:54 KAPN 300354Z AUTO 15017G27KT 10SM -RA OVC017 08/06 A2949 RMK AO2 PK WND 15032/0257 RAB40 SLP989 P0000 T00780056
 
KSLH - Cheboygan, Michigan, USA
Distance from station: WNW 38mi, 61km
Updated: Tue, 29-Nov-2022 11:15pm EST
Overcast
Overcast
 Wind from SSE
Wind: SSE 16 mph , 26 km/h, Gust: 26 mph , 43 km/h
Temperature: 48°F , 9°C
Wind Chill: 42°F , 6°C
Dew Point: 43°F , 6°C
Humidity: 82%
Barometer: 29.36 inHg , 994.2 hPa
Clouds: Overcast
Visibility: 10 miles , 16 km
Cloud details: Overcast 1900 ft
2022/11/30 04:15 KSLH 300415Z AUTO 15014G23KT 10SM OVC019 09/06 A2936 RMK AO2
KDRM - Drummond Is, Michigan, USA
Distance from station: N 40mi, 65km
Updated: Tue, 29-Nov-2022 7:15pm EST
NOT Current
Overcast
Overcast
 Wind from SE
Wind: SE 20 mph , 31 km/h, Gust: 36 mph , 57 km/h
Temperature: 43°F , 6°C
Wind Chill: 34°F , 1°C
Dew Point: 39°F , 4°C
Humidity: 87%
Barometer: 29.63 inHg , 1003.4 hPa
Clouds: Overcast
Visibility: 10 miles , 16 km
Cloud details: Overcast 1100 ft
2022/11/30 00:15 KDRM 300015Z AUTO 14017G31KT 10SM OVC011 06/04 A2963 RMK AO2 T00610039
 
KPLN - Pellston, Michigan, USA
Distance from station: WNW 49mi, 79km
Updated: Tue, 29-Nov-2022 10:54pm EST
Overcast
Overcast
 Wind from SSE
Wind: SSE 14 mph , 22 km/h, Gust: 25 mph , 41 km/h
Temperature: 48°F , 9°C
Wind Chill: 42°F , 6°C
Dew Point: 43°F , 6°C
Humidity: 82%
Barometer: 29.38 inHg , 994.9 hPa
Clouds: Overcast
Visibility: 10 miles , 16 km
Cloud details: Overcast 2000 ft
2022/11/30 03:54 KPLN 300354Z AUTO 16012G22KT 10SM OVC020 09/06 A2938 RMK AO2 PK WND 19026/0258 SLP952 T00940056
KMCD - Mackinac Island, Michigan, USA
Distance from station: NW 50mi, 80km
Updated: Tue, 29-Nov-2022 11:15pm EST
Overcast
Overcast
 Wind from SSE
Wind: SSE 15 mph , 24 km/h, Gust: 25 mph , 41 km/h
Temperature: 46°F , 8°C
Wind Chill: 40°F , 4°C
Dew Point: 41°F , 5°C
Humidity: 82%
Barometer: 29.35 inHg , 993.9 hPa
Clouds: Overcast
Visibility: 10 miles , 16 km
Cloud details: Overcast 1800 ft
2022/11/30 04:15 KMCD 300415Z AUTO 15013G22KT 10SM OVC018 08/05 A2935 RMK AO2 T00800052